createdAt,value
2023-01-23T00:01:31.724Z,10.93
2023-01-23T00:03:59.165Z,10.97
2023-01-23T00:06:27.108Z,11.10
2023-01-23T00:08:56.677Z,10.40
2023-01-23T00:11:28.485Z,10.40
2023-01-23T00:13:57.779Z,11.80
2023-01-23T00:16:27.393Z,10.20
2023-01-23T00:18:54.839Z,10.83
2023-01-23T00:21:25.841Z,10.90
2023-01-23T00:23:56.003Z,10.50
2023-01-23T00:26:28.823Z,12.87
2023-01-23T00:28:56.913Z,12.07
2023-01-23T00:31:33.216Z,10.83
2023-01-23T00:34:04.858Z,11.93
2023-01-23T00:36:36.224Z,12.13
2023-01-23T00:39:07.179Z,11.50
2023-01-23T00:41:34.513Z,11.77
2023-01-23T00:44:01.703Z,12.17
2023-01-23T00:46:29.874Z,12.60
2023-01-23T00:48:56.844Z,11.50
2023-01-23T00:51:24.381Z,13.23
2023-01-23T00:53:52.439Z,12.10
2023-01-23T00:56:19.617Z,11.80
2023-01-23T00:58:46.535Z,12.33
2023-01-23T01:01:15.560Z,12.17
2023-01-23T01:03:44.232Z,11.10
2023-01-23T01:06:11.839Z,12.83
2023-01-23T01:08:39.440Z,12.00
2023-01-23T01:11:07.097Z,12.73
2023-01-23T01:13:34.736Z,11.60
2023-01-23T01:16:02.188Z,12.97
2023-01-23T01:18:30.010Z,12.20
2023-01-23T01:20:57.840Z,11.67
2023-01-23T01:23:25.482Z,12.17
2023-01-23T01:25:52.798Z,12.87
2023-01-23T01:28:19.777Z,12.03
2023-01-23T01:30:46.666Z,13.00
2023-01-23T01:33:13.666Z,12.33
2023-01-23T01:35:41.506Z,14.20
2023-01-23T01:38:09.317Z,12.60
2023-01-23T01:40:37.681Z,13.27
2023-01-23T01:43:18.989Z,12.60
2023-01-23T01:46:14.823Z,13.33
2023-01-23T01:49:01.000Z,12.90
2023-01-23T01:51:50.468Z,12.17
2023-01-23T01:54:25.332Z,12.63
2023-01-23T01:57:12.633Z,12.10
2023-01-23T02:00:07.602Z,12.50
2023-01-23T02:03:01.351Z,11.70
2023-01-23T02:05:59.502Z,12.17
2023-01-23T02:08:48.289Z,11.73
2023-01-23T02:11:17.008Z,12.30
2023-01-23T02:13:45.928Z,11.50
2023-01-23T02:16:21.981Z,12.03
2023-01-23T02:18:53.999Z,11.80
2023-01-23T02:21:25.372Z,12.43
2023-01-23T02:24:12.855Z,12.40
2023-01-23T02:26:45.854Z,11.80
2023-01-23T02:29:14.194Z,11.17
2023-01-23T02:31:43.114Z,12.93
2023-01-23T02:34:13.310Z,11.50
2023-01-23T02:36:44.108Z,12.03
2023-01-23T02:39:17.776Z,12.77
2023-01-23T02:41:49.353Z,11.60
2023-01-23T02:44:27.947Z,9.67
2023-01-23T02:46:57.015Z,11.27
2023-01-23T02:49:24.286Z,11.83
2023-01-23T02:51:54.141Z,11.07
2023-01-23T02:54:23.669Z,11.33
2023-01-23T02:56:51.287Z,11.53
2023-01-23T02:59:36.461Z,11.17
2023-01-23T03:02:04.440Z,10.40
2023-01-23T03:04:31.477Z,11.10
2023-01-23T03:06:59.313Z,10.97
2023-01-23T03:09:27.120Z,11.23
2023-01-23T03:11:54.159Z,10.20
2023-01-23T03:14:24.603Z,9.77
2023-01-23T03:16:53.777Z,10.30
2023-01-23T03:19:27.088Z,10.23
2023-01-23T03:21:54.832Z,12.50
2023-01-23T03:24:22.354Z,11.20
2023-01-23T03:26:51.579Z,10.67
2023-01-23T03:29:41.536Z,10.73
2023-01-23T03:32:09.415Z,11.00
2023-01-23T03:34:36.634Z,10.93
2023-01-23T03:37:03.966Z,10.63
2023-01-23T03:39:49.891Z,11.30
2023-01-23T03:42:17.276Z,9.77
2023-01-23T03:44:44.257Z,10.30
2023-01-23T03:47:11.154Z,10.00
2023-01-23T03:49:38.163Z,11.03
2023-01-23T03:52:05.309Z,9.70
2023-01-23T03:54:32.505Z,9.03
2023-01-23T03:56:59.462Z,10.13
2023-01-23T03:59:26.378Z,10.80
2023-01-23T04:01:53.374Z,9.17
2023-01-23T04:04:20.259Z,9.63
2023-01-23T04:06:47.219Z,10.30
2023-01-23T04:09:14.221Z,9.53
2023-01-23T04:11:41.140Z,10.30
2023-01-23T04:14:08.909Z,9.43
2023-01-23T04:16:35.882Z,10.50
2023-01-23T04:19:02.904Z,10.03
2023-01-23T04:21:29.867Z,10.20
2023-01-23T04:23:56.801Z,10.50
2023-01-23T04:26:23.780Z,10.67
2023-01-23T04:28:50.687Z,9.60
2023-01-23T04:31:17.709Z,10.00
2023-01-23T04:33:44.813Z,8.80
2023-01-23T04:36:12.052Z,10.20
2023-01-23T04:38:38.953Z,8.57
2023-01-23T04:41:05.995Z,9.97
2023-01-23T04:43:33.021Z,9.30
2023-01-23T04:46:00.015Z,9.50
2023-01-23T04:48:26.981Z,9.00
2023-01-23T04:50:53.967Z,8.60
2023-01-23T04:53:21.024Z,9.50
2023-01-23T04:55:49.472Z,9.23
2023-01-23T04:58:18.366Z,9.67
2023-01-23T05:00:46.201Z,8.80
2023-01-23T05:03:14.575Z,9.90
2023-01-23T05:05:42.825Z,9.30
2023-01-23T05:08:13.523Z,10.23
2023-01-23T05:10:40.492Z,9.20
2023-01-23T05:13:09.592Z,9.27
2023-01-23T05:15:36.531Z,8.97
2023-01-23T05:18:03.992Z,10.17
2023-01-23T05:20:30.867Z,8.93
2023-01-23T05:22:58.659Z,10.70
2023-01-23T05:25:28.264Z,10.53
2023-01-23T05:27:55.707Z,9.93
2023-01-23T05:30:23.634Z,9.83
2023-01-23T05:32:51.077Z,9.37
2023-01-23T05:35:18.269Z,8.63
2023-01-23T05:37:50.619Z,9.03
2023-01-23T05:40:18.348Z,8.77
2023-01-23T05:42:46.611Z,9.47
2023-01-23T05:45:14.542Z,10.07
2023-01-23T05:47:42.096Z,8.90
2023-01-23T05:50:14.283Z,9.63
2023-01-23T05:52:41.510Z,8.87
2023-01-23T05:55:08.655Z,9.13
2023-01-23T05:57:35.888Z,9.30
2023-01-23T06:00:04.938Z,8.67
2023-01-23T06:02:34.850Z,8.30
2023-01-23T06:05:05.638Z,8.40
2023-01-23T06:07:32.801Z,9.17
2023-01-23T06:09:59.676Z,8.63
2023-01-23T06:12:26.787Z,9.33
2023-01-23T06:14:54.080Z,8.50
2023-01-23T06:17:20.982Z,8.37
2023-01-23T06:19:48.919Z,9.30
2023-01-23T06:22:15.874Z,8.83
2023-01-23T06:24:42.905Z,8.27
2023-01-23T06:27:09.859Z,8.57
2023-01-23T06:29:37.167Z,8.53
2023-01-23T06:32:05.428Z,8.27
2023-01-23T06:34:32.477Z,8.50
2023-01-23T06:36:59.387Z,8.83
2023-01-23T06:39:27.032Z,8.47
2023-01-23T06:41:53.998Z,7.30
2023-01-23T06:44:20.892Z,7.20
2023-01-23T06:46:49.078Z,8.00
2023-01-23T06:49:15.989Z,7.57
2023-01-23T06:51:42.915Z,9.17
2023-01-23T06:54:10.040Z,7.40
2023-01-23T06:56:36.938Z,7.23
2023-01-23T06:59:03.822Z,8.77
2023-01-23T07:01:30.867Z,8.17
2023-01-23T07:03:58.763Z,7.97
2023-01-23T07:06:26.648Z,8.07
2023-01-23T07:08:53.613Z,7.53
2023-01-23T07:11:20.580Z,7.77
2023-01-23T07:13:47.511Z,8.30
2023-01-23T07:16:14.479Z,8.30
2023-01-23T07:18:41.405Z,8.23
2023-01-23T07:21:08.772Z,9.20
2023-01-23T07:23:35.837Z,8.90
2023-01-23T07:26:09.452Z,9.40
2023-01-23T07:28:37.663Z,8.50
2023-01-23T07:31:05.777Z,8.60
2023-01-23T07:33:32.868Z,8.97
2023-01-23T07:35:59.912Z,8.90
2023-01-23T07:38:32.439Z,9.10
2023-01-23T07:40:59.962Z,8.70
2023-01-23T07:43:27.644Z,9.03
2023-01-23T07:45:54.604Z,8.77
2023-01-23T07:48:24.758Z,9.00
2023-01-23T07:50:51.789Z,8.90
2023-01-23T07:53:18.766Z,8.47
2023-01-23T07:55:45.734Z,8.60
2023-01-23T07:58:12.729Z,8.47
2023-01-23T08:00:41.831Z,9.60
2023-01-23T08:03:09.005Z,8.80
2023-01-23T08:05:35.917Z,8.30
2023-01-23T08:08:13.094Z,8.37
2023-01-23T08:10:41.672Z,8.53
2023-01-23T08:13:08.584Z,9.20
2023-01-23T08:15:38.728Z,8.53
2023-01-23T08:18:05.940Z,7.83
2023-01-23T08:20:33.309Z,8.07
2023-01-23T08:23:02.126Z,8.10
2023-01-23T08:25:29.203Z,8.43
2023-01-23T08:27:56.276Z,8.87
2023-01-23T08:30:23.265Z,8.10
2023-01-23T08:32:50.278Z,8.90
2023-01-23T08:35:17.251Z,8.90
2023-01-23T08:37:44.221Z,8.40
2023-01-23T08:40:11.998Z,8.20
2023-01-23T08:42:38.900Z,10.27
2023-01-23T08:45:06.658Z,9.23
2023-01-23T08:47:36.572Z,9.60
2023-01-23T08:50:05.286Z,8.90
2023-01-23T08:52:33.839Z,8.43
2023-01-23T08:55:00.768Z,8.93
2023-01-23T08:57:27.628Z,8.87
2023-01-23T08:59:54.580Z,7.83
2023-01-23T09:02:22.186Z,9.90
2023-01-23T09:04:50.335Z,9.10
2023-01-23T09:07:17.280Z,9.70
2023-01-23T09:09:44.184Z,8.83
2023-01-23T09:12:11.094Z,9.40
2023-01-23T09:14:38.197Z,9.50
2023-01-23T09:17:06.125Z,9.20
2023-01-23T09:19:33.402Z,9.67
2023-01-23T09:22:00.327Z,9.53
2023-01-23T09:24:27.322Z,8.50
2023-01-23T09:26:54.273Z,7.80
2023-01-23T09:29:21.221Z,8.73
2023-01-23T09:31:48.189Z,8.93
2023-01-23T09:34:17.167Z,9.13
2023-01-23T09:36:44.570Z,9.40
2023-01-23T09:39:12.536Z,9.67
2023-01-23T09:41:40.761Z,9.33
2023-01-23T09:44:34.058Z,7.57
2023-01-23T09:47:53.419Z,8.47
2023-01-23T09:50:52.246Z,8.70
2023-01-23T09:53:25.995Z,8.00
2023-01-23T09:56:35.249Z,8.80
2023-01-23T09:59:50.275Z,7.90
2023-01-23T10:02:27.028Z,8.47
2023-01-23T10:04:56.032Z,8.70
2023-01-23T10:07:43.919Z,9.00
2023-01-23T10:10:31.881Z,9.83
2023-01-23T10:13:15.523Z,8.57
2023-01-23T10:15:43.265Z,9.17
2023-01-23T10:18:35.954Z,8.70
2023-01-23T10:21:23.896Z,8.10
2023-01-23T10:24:38.018Z,8.87
2023-01-23T10:27:24.466Z,9.30
2023-01-23T10:30:11.898Z,9.37
2023-01-23T10:32:58.019Z,8.70
2023-01-23T10:35:50.774Z,7.30
2023-01-23T10:38:27.928Z,8.50
2023-01-23T10:41:13.312Z,8.90
2023-01-23T10:43:51.449Z,8.33
2023-01-23T10:46:31.512Z,8.27
2023-01-23T10:49:02.661Z,7.63
2023-01-23T10:51:48.913Z,6.87
2023-01-23T10:54:31.692Z,8.27
2023-01-23T10:57:17.045Z,7.50
2023-01-23T11:00:04.126Z,8.30
2023-01-23T11:02:37.367Z,7.40
2023-01-23T11:05:52.818Z,7.10
2023-01-23T11:08:37.256Z,6.63
2023-01-23T11:11:16.796Z,6.80
2023-01-23T11:13:46.645Z,6.03
2023-01-23T11:16:23.355Z,6.93
2023-01-23T11:19:08.487Z,6.00
2023-01-23T11:21:58.144Z,5.80
2023-01-23T11:24:38.342Z,5.40
2023-01-23T11:27:20.139Z,6.30
2023-01-23T11:30:08.207Z,5.93
2023-01-23T11:33:33.775Z,6.33
2023-01-23T11:36:18.822Z,7.10
2023-01-23T11:38:52.848Z,7.90
2023-01-23T11:41:32.220Z,6.20
2023-01-23T11:44:07.334Z,6.77
2023-01-23T11:46:43.627Z,6.70
2023-01-23T11:49:45.607Z,6.83
2023-01-23T11:53:09.397Z,5.90
2023-01-23T11:56:08.389Z,6.40
2023-01-23T11:58:59.930Z,6.60
2023-01-23T12:02:02.557Z,6.87
2023-01-23T12:05:25.992Z,6.90
2023-01-23T12:08:19.662Z,7.00
2023-01-23T12:11:13.884Z,6.37
2023-01-23T12:14:12.218Z,6.07
2023-01-23T12:17:18.439Z,6.83
2023-01-23T12:20:07.225Z,6.63
2023-01-23T12:23:18.458Z,6.70
2023-01-23T12:26:15.790Z,6.50
2023-01-23T12:29:01.037Z,6.93
2023-01-23T12:31:41.401Z,7.30
2023-01-23T12:34:42.670Z,7.43
2023-01-23T12:38:01.006Z,7.80
2023-01-23T12:40:45.078Z,6.70
2023-01-23T12:43:28.748Z,7.20
2023-01-23T12:46:07.534Z,8.27
2023-01-23T12:48:44.513Z,6.90
2023-01-23T12:51:23.618Z,5.67
2023-01-23T12:53:57.471Z,6.63
2023-01-23T12:56:34.028Z,6.83
2023-01-23T12:59:32.069Z,7.30
2023-01-23T13:02:23.417Z,7.10
2023-01-23T13:05:27.967Z,7.13
2023-01-23T13:08:38.338Z,6.60
2023-01-23T13:11:42.255Z,6.57
2023-01-23T13:15:03.587Z,7.00
2023-01-23T13:18:01.240Z,6.20
2023-01-23T13:20:56.938Z,6.37
2023-01-23T13:23:33.089Z,6.67
2023-01-23T13:26:12.044Z,6.70
2023-01-23T13:28:55.475Z,6.23
2023-01-23T13:31:34.382Z,7.33
2023-01-23T13:34:25.443Z,7.83
2023-01-23T13:36:54.209Z,7.20
2023-01-23T13:39:28.353Z,6.97
2023-01-23T13:42:16.352Z,7.47
2023-01-23T13:45:29.828Z,7.57
2023-01-23T14:25:38.724Z,6.80
2023-01-23T14:28:06.558Z,6.70
2023-01-23T14:30:33.488Z,7.20
2023-01-23T14:33:00.386Z,7.10
2023-01-23T14:35:27.167Z,7.20
2023-01-23T14:37:59.327Z,7.70
2023-01-23T14:40:29.779Z,7.10
2023-01-23T14:43:08.097Z,7.30
2023-01-23T14:45:36.464Z,7.77
2023-01-23T14:48:07.442Z,7.97
2023-01-23T14:50:35.742Z,7.07
2023-01-23T14:53:13.332Z,6.67
2023-01-23T14:55:44.920Z,7.43
2023-01-23T14:58:23.757Z,7.80
2023-01-23T15:00:52.202Z,6.60
2023-01-23T15:03:39.101Z,7.47
2023-01-23T15:06:15.600Z,7.60
2023-01-23T15:08:42.970Z,6.83
2023-01-23T15:11:12.986Z,6.87
2023-01-23T15:13:54.835Z,6.90
2023-01-23T15:16:31.633Z,7.37
2023-01-23T15:19:23.042Z,6.70
2023-01-23T15:21:50.684Z,6.60
2023-01-23T15:24:26.758Z,6.50
2023-01-23T15:27:03.468Z,6.97
2023-01-23T15:29:32.135Z,6.60
2023-01-23T15:32:00.436Z,6.90
2023-01-23T15:34:34.035Z,7.40
2023-01-23T15:37:12.036Z,6.37
2023-01-23T15:40:02.507Z,6.10
2023-01-23T15:42:34.944Z,6.73
2023-01-23T15:45:03.775Z,6.13
2023-01-23T15:47:31.831Z,6.77
2023-01-23T15:50:02.898Z,6.70
2023-01-23T15:52:52.304Z,6.90
2023-01-23T15:55:21.284Z,5.97
2023-01-23T15:57:48.828Z,7.00
2023-01-23T16:00:19.198Z,7.30
2023-01-23T16:02:56.131Z,6.30
2023-01-23T16:05:28.175Z,7.90
2023-01-23T16:07:57.274Z,6.70
2023-01-23T16:10:39.134Z,7.27
2023-01-23T16:13:07.856Z,6.33
2023-01-23T16:15:37.130Z,7.30
2023-01-23T16:18:07.229Z,7.60
2023-01-23T16:20:42.328Z,7.10
2023-01-23T16:23:17.254Z,6.83
2023-01-23T16:25:45.922Z,7.60
2023-01-23T16:28:14.124Z,7.57
2023-01-23T16:30:41.325Z,7.00
2023-01-23T16:33:08.772Z,6.50
2023-01-23T16:35:36.091Z,7.17
2023-01-23T16:38:03.267Z,6.50
2023-01-23T16:40:30.903Z,6.53
2023-01-23T16:42:59.800Z,6.90
2023-01-23T16:45:31.880Z,6.53
2023-01-23T16:47:59.450Z,6.53
2023-01-23T16:50:35.470Z,6.60
2023-01-23T16:53:23.984Z,6.97
2023-01-23T16:55:54.173Z,6.33
2023-01-23T16:58:29.009Z,6.50
2023-01-23T17:01:08.920Z,5.60
2023-01-23T17:03:40.792Z,7.23
2023-01-23T17:06:16.493Z,6.37
2023-01-23T17:08:43.596Z,5.87
2023-01-23T17:11:24.064Z,6.30
2023-01-23T17:14:06.933Z,6.30
2023-01-23T17:16:34.082Z,6.97
2023-01-23T17:19:12.873Z,6.37
2023-01-23T17:21:39.863Z,7.17
2023-01-23T17:24:15.058Z,7.00
2023-01-23T17:26:42.034Z,6.87
2023-01-23T17:29:09.373Z,6.80
2023-01-23T17:31:37.845Z,7.40
2023-01-23T17:34:06.617Z,6.90
2023-01-23T17:36:33.887Z,6.83
2023-01-23T17:39:01.126Z,6.63
2023-01-23T17:41:28.052Z,7.20
2023-01-23T17:43:54.936Z,6.73
2023-01-23T17:46:28.533Z,7.47
2023-01-23T17:48:56.481Z,7.27
2023-01-23T17:51:25.436Z,6.90
2023-01-23T17:53:53.163Z,6.80
2023-01-23T17:56:20.085Z,7.87
2023-01-23T17:58:46.992Z,7.17
2023-01-23T18:01:22.733Z,8.13
2023-01-23T18:03:51.063Z,7.27
2023-01-23T18:06:19.101Z,7.73
2023-01-23T18:08:46.435Z,8.57
2023-01-23T18:11:19.946Z,7.93
2023-01-23T18:13:58.903Z,8.23
2023-01-23T18:16:31.761Z,7.30
2023-01-23T18:19:20.699Z,7.17
2023-01-23T18:21:54.611Z,7.87
2023-01-23T18:24:31.116Z,7.30
2023-01-23T18:27:17.680Z,7.77
2023-01-23T18:30:15.987Z,8.17
2023-01-23T18:33:20.324Z,7.47
2023-01-23T18:36:20.452Z,9.00
2023-01-23T18:39:15.085Z,8.07
2023-01-23T18:42:17.208Z,7.87
2023-01-23T18:45:02.606Z,8.40
2023-01-23T18:47:29.759Z,8.73
2023-01-23T18:49:57.083Z,8.00
2023-01-23T18:52:30.311Z,8.60
2023-01-23T18:55:26.299Z,7.90
2023-01-23T18:58:30.847Z,7.70
2023-01-23T19:01:24.042Z,8.20
2023-01-23T19:03:53.426Z,8.17
2023-01-23T19:06:23.927Z,8.10
2023-01-23T19:08:54.202Z,8.03
2023-01-23T19:12:14.031Z,8.73
2023-01-23T19:14:57.834Z,7.60
2023-01-23T19:17:47.011Z,8.40
2023-01-23T19:20:37.770Z,7.80
2023-01-23T19:23:20.997Z,8.30
2023-01-23T19:25:48.372Z,7.80
2023-01-23T19:28:16.837Z,8.03
2023-01-23T19:30:44.791Z,8.17
2023-01-23T19:33:19.987Z,7.33
2023-01-23T19:35:48.292Z,8.10
2023-01-23T19:38:15.490Z,7.63
2023-01-23T19:40:43.949Z,8.33
2023-01-23T19:43:16.826Z,7.73
2023-01-23T19:45:44.791Z,7.70
2023-01-23T19:48:12.341Z,6.57
2023-01-23T19:50:40.229Z,7.23
2023-01-23T19:53:07.330Z,8.40
2023-01-23T19:55:38.183Z,7.70
2023-01-23T19:58:05.443Z,7.10
2023-01-23T20:00:35.903Z,8.37
2023-01-23T20:03:04.876Z,7.47
2023-01-23T20:05:32.148Z,8.10
2023-01-23T20:07:59.193Z,8.73
2023-01-23T20:10:26.072Z,8.07
2023-01-23T20:12:54.310Z,7.80
2023-01-23T20:15:25.231Z,9.30
2023-01-23T20:17:53.450Z,7.73
2023-01-23T20:20:22.068Z,8.30
2023-01-23T20:22:49.119Z,7.43
2023-01-23T20:25:17.489Z,7.57
2023-01-23T20:27:45.016Z,8.03
2023-01-23T20:30:18.030Z,8.43
2023-01-23T20:32:45.463Z,6.57
2023-01-23T20:35:12.766Z,8.30
2023-01-23T20:37:39.692Z,7.97
2023-01-23T20:40:11.578Z,7.57
2023-01-23T20:42:39.685Z,9.60
2023-01-23T20:45:07.795Z,8.87
2023-01-23T20:47:37.971Z,9.40
2023-01-23T20:50:05.399Z,8.17
2023-01-23T20:52:50.949Z,7.90
2023-01-23T20:55:17.921Z,8.00
2023-01-23T20:58:03.293Z,8.40
2023-01-23T21:00:31.260Z,8.03
2023-01-23T21:02:58.207Z,9.27
2023-01-23T21:05:25.167Z,8.83
2023-01-23T21:07:52.150Z,8.30
2023-01-23T21:10:19.204Z,8.73
2023-01-23T21:12:46.226Z,9.77
2023-01-23T21:15:13.311Z,8.37
2023-01-23T21:17:40.158Z,8.80
2023-01-23T21:20:08.248Z,9.03
2023-01-23T21:22:35.209Z,8.63
2023-01-23T21:25:02.282Z,9.10
2023-01-23T21:27:29.229Z,9.63
2023-01-23T21:29:56.305Z,8.50
2023-01-23T21:32:23.329Z,8.67
2023-01-23T21:34:51.486Z,8.80
2023-01-23T21:37:18.985Z,9.23
2023-01-23T21:39:46.011Z,8.00
2023-01-23T21:42:13.599Z,8.43
2023-01-23T21:44:40.506Z,10.10
2023-01-23T21:47:07.581Z,8.50
2023-01-23T21:49:34.665Z,9.30
2023-01-23T21:52:01.622Z,9.00
2023-01-23T21:54:28.562Z,9.40
2023-01-23T21:56:55.551Z,8.70
2023-01-23T21:59:22.409Z,9.07
2023-01-23T22:01:49.370Z,9.20
2023-01-23T22:04:21.995Z,9.33
2023-01-23T22:06:55.699Z,10.17
2023-01-23T22:09:25.349Z,9.70
2023-01-23T22:11:53.648Z,8.67
2023-01-23T22:14:20.739Z,9.10
2023-01-23T22:16:49.820Z,10.03
2023-01-23T22:19:22.611Z,9.60
2023-01-23T22:21:51.455Z,9.00
2023-01-23T22:24:18.541Z,9.37
2023-01-23T22:26:45.458Z,10.43
2023-01-23T22:29:13.770Z,9.57
2023-01-23T22:31:41.244Z,8.50
2023-01-23T22:34:08.744Z,9.40
2023-01-23T22:36:35.730Z,10.07
2023-01-23T22:39:02.794Z,9.77
2023-01-23T22:41:29.750Z,9.17
2023-01-23T22:43:59.312Z,9.50
2023-01-23T22:46:27.745Z,10.30
2023-01-23T22:48:54.832Z,9.50
2023-01-23T22:51:25.727Z,10.27
2023-01-23T22:53:54.537Z,9.40
2023-01-23T22:56:22.155Z,9.43
2023-01-23T22:58:51.964Z,10.40
2023-01-23T23:01:19.555Z,9.53
2023-01-23T23:03:46.875Z,9.50
2023-01-23T23:06:16.208Z,10.00
2023-01-23T23:08:47.102Z,10.13
2023-01-23T23:11:21.362Z,9.93
2023-01-23T23:13:49.607Z,9.63
2023-01-23T23:16:25.281Z,9.73
2023-01-23T23:18:54.843Z,10.27
2023-01-23T23:21:25.253Z,11.23
2023-01-23T23:23:56.642Z,10.00
2023-01-23T23:26:24.325Z,10.00
2023-01-23T23:28:51.190Z,10.30
2023-01-23T23:31:18.198Z,9.47
2023-01-23T23:33:45.381Z,10.60
2023-01-23T23:36:12.605Z,9.73
2023-01-23T23:38:39.476Z,9.00
2023-01-23T23:41:10.737Z,11.23
2023-01-23T23:43:37.689Z,9.27
2023-01-23T23:46:07.237Z,10.00
2023-01-23T23:48:36.336Z,10.40
2023-01-23T23:51:07.265Z,10.27
2023-01-23T23:53:35.762Z,10.57
2023-01-23T23:56:03.307Z,9.53
2023-01-23T23:58:30.422Z,9.70
